sensor_id;sensor_type;location;lat;lon;timestamp;temperature;humidity
28071;DHT22;15383;48.408;9.968;2023-11-19T04:01:42;10.20;99.90
28071;DHT22;15383;48.408;9.968;2023-11-19T04:04:08;10.20;99.90
28071;DHT22;15383;48.408;9.968;2023-11-19T04:06:33;10.20;99.90
28071;DHT22;15383;48.408;9.968;2023-11-19T04:08:59;10.20;99.90
28071;DHT22;15383;48.408;9.968;2023-11-19T04:11:25;10.20;99.90
28071;DHT22;15383;48.408;9.968;2023-11-19T04:13:50;10.20;99.90
28071;DHT22;15383;48.408;9.968;2023-11-19T04:16:16;10.20;99.90
28071;DHT22;15383;48.408;9.968;2023-11-19T04:18:41;10.20;99.90
28071;DHT22;15383;48.408;9.968;2023-11-19T04:21:07;10.20;99.90
28071;DHT22;15383;48.408;9.968;2023-11-19T04:23:33;10.20;99.90
28071;DHT22;15383;48.408;9.968;2023-11-19T04:26:02;10.20;99.90
28071;DHT22;15383;48.408;9.968;2023-11-19T04:28:28;10.20;99.90
28071;DHT22;15383;48.408;9.968;2023-11-19T04:30:53;10.20;99.90
28071;DHT22;15383;48.408;9.968;2023-11-19T04:33:19;10.20;99.90
28071;DHT22;15383;48.408;9.968;2023-11-19T04:35:45;10.20;99.90
28071;DHT22;15383;48.408;9.968;2023-11-19T04:38:10;10.20;99.90
28071;DHT22;15383;48.408;9.968;2023-11-19T04:40:36;10.20;99.90
28071;DHT22;15383;48.408;9.968;2023-11-19T04:43:02;10.20;99.90
28071;DHT22;15383;48.408;9.968;2023-11-19T04:45:27;10.20;99.90
28071;DHT22;15383;48.408;9.968;2023-11-19T04:47:53;10.20;99.90
28071;DHT22;15383;48.408;9.968;2023-11-19T04:50:18;10.20;99.90
28071;DHT22;15383;48.408;9.968;2023-11-19T04:52:44;10.20;99.90
28071;DHT22;15383;48.408;9.968;2023-11-19T04:55:10;10.20;99.90
28071;DHT22;15383;48.408;9.968;2023-11-19T04:57:40;10.20;99.90
28071;DHT22;15383;48.408;9.968;2023-11-19T05:00:06;10.20;99.90
28071;DHT22;15383;48.408;9.968;2023-11-19T05:02:33;10.20;99.90
28071;DHT22;15383;48.408;9.968;2023-11-19T05:04:59;10.20;99.90
28071;DHT22;15383;48.408;9.968;2023-11-19T05:07:24;10.20;99.90
28071;DHT22;15383;48.408;9.968;2023-11-19T05:09:50;10.20;99.90
28071;DHT22;15383;48.408;9.968;2023-11-19T05:12:16;10.20;99.90
28071;DHT22;15383;48.408;9.968;2023-11-19T05:14:41;10.20;99.90
28071;DHT22;15383;48.408;9.968;2023-11-19T05:17:13;10.20;99.90
28071;DHT22;15383;48.408;9.968;2023-11-19T05:19:39;10.20;99.90
28071;DHT22;15383;48.408;9.968;2023-11-19T05:22:04;10.20;99.90
28071;DHT22;15383;48.408;9.968;2023-11-19T05:24:31;10.20;99.90
28071;DHT22;15383;48.408;9.968;2023-11-19T05:26:57;10.20;99.90
28071;DHT22;15383;48.408;9.968;2023-11-19T05:29:23;10.20;99.90
28071;DHT22;15383;48.408;9.968;2023-11-19T05:31:49;10.20;99.90
28071;DHT22;15383;48.408;9.968;2023-11-19T05:34:15;10.20;99.90
28071;DHT22;15383;48.408;9.968;2023-11-19T05:36:41;10.20;99.90
28071;DHT22;15383;48.408;9.968;2023-11-19T05:39:06;10.20;99.90
28071;DHT22;15383;48.408;9.968;2023-11-19T05:41:32;10.20;99.90
28071;DHT22;15383;48.408;9.968;2023-11-19T05:43:57;10.20;99.90
28071;DHT22;15383;48.408;9.968;2023-11-19T05:46:23;10.20;99.90
28071;DHT22;15383;48.408;9.968;2023-11-19T05:48:50;10.20;99.90
28071;DHT22;15383;48.408;9.968;2023-11-19T05:51:16;10.20;99.90
28071;DHT22;15383;48.408;9.968;2023-11-19T05:53:42;10.20;99.90
28071;DHT22;15383;48.408;9.968;2023-11-19T05:56:09;10.20;99.90
28071;DHT22;15383;48.408;9.968;2023-11-19T05:58:35;10.20;99.90
28071;DHT22;15383;48.408;9.968;2023-11-19T06:01:01;10.20;99.90
28071;DHT22;15383;48.408;9.968;2023-11-19T06:03:27;10.30;99.90
28071;DHT22;15383;48.408;9.968;2023-11-19T06:05:53;10.30;99.90
28071;DHT22;15383;48.408;9.968;2023-11-19T06:08:20;10.20;99.90
28071;DHT22;15383;48.408;9.968;2023-11-19T06:10:46;10.20;99.90
28071;DHT22;15383;48.408;9.968;2023-11-19T06:13:13;10.20;99.90
28071;DHT22;15383;48.408;9.968;2023-11-19T06:15:41;10.30;99.90
28071;DHT22;15383;48.408;9.968;2023-11-19T06:18:07;10.20;99.90
28071;DHT22;15383;48.408;9.968;2023-11-19T06:20:33;10.20;99.90
28071;DHT22;15383;48.408;9.968;2023-11-19T06:22:59;10.20;99.90
28071;DHT22;15383;48.408;9.968;2023-11-19T06:25:25;10.30;99.90
28071;DHT22;15383;48.408;9.968;2023-11-19T06:27:51;10.20;99.90
28071;DHT22;15383;48.408;9.968;2023-11-19T06:30:18;10.20;99.90
28071;DHT22;15383;48.408;9.968;2023-11-19T06:32:43;10.20;99.90
28071;DHT22;15383;48.408;9.968;2023-11-19T06:35:09;10.20;99.90
28071;DHT22;15383;48.408;9.968;2023-11-19T06:37:35;10.20;99.90
28071;DHT22;15383;48.408;9.968;2023-11-19T06:40:01;10.30;99.90
28071;DHT22;15383;48.408;9.968;2023-11-19T06:42:26;10.20;99.90
28071;DHT22;15383;48.408;9.968;2023-11-19T06:44:52;10.20;99.90
28071;DHT22;15383;48.408;9.968;2023-11-19T06:47:18;10.30;99.90
28071;DHT22;15383;48.408;9.968;2023-11-19T06:49:44;10.20;99.90
28071;DHT22;15383;48.408;9.968;2023-11-19T06:52:10;10.20;99.90
28071;DHT22;15383;48.408;9.968;2023-11-19T06:54:35;10.20;99.90
28071;DHT22;15383;48.408;9.968;2023-11-19T06:57:01;10.20;99.90
28071;DHT22;15383;48.408;9.968;2023-11-19T06:59:28;10.20;99.90
28071;DHT22;15383;48.408;9.968;2023-11-19T07:01:55;10.20;99.90
28071;DHT22;15383;48.408;9.968;2023-11-19T07:04:21;10.20;99.90
28071;DHT22;15383;48.408;9.968;2023-11-19T07:06:46;10.20;99.90
28071;DHT22;15383;48.408;9.968;2023-11-19T07:09:13;10.30;99.90
28071;DHT22;15383;48.408;9.968;2023-11-19T07:11:39;10.30;99.90
28071;DHT22;15383;48.408;9.968;2023-11-19T07:14:06;10.30;99.90
28071;DHT22;15383;48.408;9.968;2023-11-19T07:16:33;10.20;99.90
28071;DHT22;15383;48.408;9.968;2023-11-19T07:19:00;10.20;99.90
28071;DHT22;15383;48.408;9.968;2023-11-19T07:21:26;10.20;99.90
28071;DHT22;15383;48.408;9.968;2023-11-19T07:23:54;10.20;99.90
28071;DHT22;15383;48.408;9.968;2023-11-19T07:26:20;10.20;99.90
28071;DHT22;15383;48.408;9.968;2023-11-19T07:28:45;10.20;99.90
28071;DHT22;15383;48.408;9.968;2023-11-19T07:31:11;10.20;99.90
28071;DHT22;15383;48.408;9.968;2023-11-19T07:33:39;10.20;99.90
28071;DHT22;15383;48.408;9.968;2023-11-19T07:36:08;10.30;99.90
28071;DHT22;15383;48.408;9.968;2023-11-19T07:38:34;10.30;99.90
28071;DHT22;15383;48.408;9.968;2023-11-19T07:40:59;10.30;99.90
28071;DHT22;15383;48.408;9.968;2023-11-19T07:43:25;10.30;99.90
28071;DHT22;15383;48.408;9.968;2023-11-19T07:45:51;10.30;99.90
28071;DHT22;15383;48.408;9.968;2023-11-19T07:48:16;10.30;99.90
28071;DHT22;15383;48.408;9.968;2023-11-19T07:50:43;10.30;99.90
28071;DHT22;15383;48.408;9.968;2023-11-19T07:53:08;10.30;99.90
28071;DHT22;15383;48.408;9.968;2023-11-19T07:55:34;10.30;99.90
28071;DHT22;15383;48.408;9.968;2023-11-19T07:58:00;10.30;99.90
28071;DHT22;15383;48.408;9.968;2023-11-19T08:00:26;10.30;99.90
28071;DHT22;15383;48.408;9.968;2023-11-19T08:02:52;10.30;99.90
28071;DHT22;15383;48.408;9.968;2023-11-19T08:05:17;10.30;99.90
28071;DHT22;15383;48.408;9.968;2023-11-19T08:07:43;10.30;99.90
28071;DHT22;15383;48.408;9.968;2023-11-19T08:10:08;10.30;99.90
28071;DHT22;15383;48.408;9.968;2023-11-19T08:12:35;10.30;99.90
28071;DHT22;15383;48.408;9.968;2023-11-19T08:15:04;10.30;99.90
28071;DHT22;15383;48.408;9.968;2023-11-19T08:17:30;10.30;99.90
28071;DHT22;15383;48.408;9.968;2023-11-19T08:19:56;10.30;99.90
28071;DHT22;15383;48.408;9.968;2023-11-19T08:22:21;10.30;99.90
28071;DHT22;15383;48.408;9.968;2023-11-19T08:24:48;10.30;99.90
28071;DHT22;15383;48.408;9.968;2023-11-19T08:27:13;10.30;99.90
28071;DHT22;15383;48.408;9.968;2023-11-19T08:29:39;10.30;99.90
28071;DHT22;15383;48.408;9.968;2023-11-19T08:32:06;10.30;99.90
28071;DHT22;15383;48.408;9.968;2023-11-19T08:34:32;10.30;99.90
28071;DHT22;15383;48.408;9.968;2023-11-19T08:36:57;10.30;99.90
28071;DHT22;15383;48.408;9.968;2023-11-19T08:39:23;10.30;99.90
28071;DHT22;15383;48.408;9.968;2023-11-19T08:41:49;10.30;99.90
28071;DHT22;15383;48.408;9.968;2023-11-19T08:44:15;10.30;99.90
28071;DHT22;15383;48.408;9.968;2023-11-19T08:46:50;10.30;99.90
28071;DHT22;15383;48.408;9.968;2023-11-19T08:49:16;10.30;99.90
28071;DHT22;15383;48.408;9.968;2023-11-19T08:51:41;10.30;99.90
28071;DHT22;15383;48.408;9.968;2023-11-19T08:54:07;10.30;99.90
28071;DHT22;15383;48.408;9.968;2023-11-19T08:56:33;10.30;99.90
28071;DHT22;15383;48.408;9.968;2023-11-19T08:59:00;10.30;99.90
28071;DHT22;15383;48.408;9.968;2023-11-19T09:01:26;10.30;99.90
28071;DHT22;15383;48.408;9.968;2023-11-19T09:03:51;10.30;99.90
28071;DHT22;15383;48.408;9.968;2023-11-19T09:06:17;10.30;99.90
28071;DHT22;15383;48.408;9.968;2023-11-19T09:08:43;10.40;99.90
28071;DHT22;15383;48.408;9.968;2023-11-19T09:11:09;10.40;99.90
28071;DHT22;15383;48.408;9.968;2023-11-19T09:13:35;10.40;99.90
28071;DHT22;15383;48.408;9.968;2023-11-19T09:16:01;10.40;99.90
28071;DHT22;15383;48.408;9.968;2023-11-19T09:18:29;10.40;99.90
28071;DHT22;15383;48.408;9.968;2023-11-19T09:20:54;10.40;99.90
28071;DHT22;15383;48.408;9.968;2023-11-19T09:23:20;10.50;99.90
28071;DHT22;15383;48.408;9.968;2023-11-19T09:25:46;10.50;99.90
28071;DHT22;15383;48.408;9.968;2023-11-19T09:28:11;10.40;99.90
28071;DHT22;15383;48.408;9.968;2023-11-19T09:30:38;10.50;99.90
28071;DHT22;15383;48.408;9.968;2023-11-19T09:33:04;10.50;99.90
28071;DHT22;15383;48.408;9.968;2023-11-19T09:35:29;10.50;99.90
28071;DHT22;15383;48.408;9.968;2023-11-19T09:37:55;10.60;99.90
28071;DHT22;15383;48.408;9.968;2023-11-19T09:40:20;10.60;99.90
28071;DHT22;15383;48.408;9.968;2023-11-19T09:42:46;10.60;99.90
28071;DHT22;15383;48.408;9.968;2023-11-19T09:45:16;10.60;99.90
28071;DHT22;15383;48.408;9.968;2023-11-19T09:47:44;10.60;99.90
28071;DHT22;15383;48.408;9.968;2023-11-19T09:50:17;10.60;99.90
28071;DHT22;15383;48.408;9.968;2023-11-19T09:52:44;10.60;99.90
28071;DHT22;15383;48.408;9.968;2023-11-19T09:55:10;10.60;99.90
28071;DHT22;15383;48.408;9.968;2023-11-19T09:57:38;10.60;99.90
28071;DHT22;15383;48.408;9.968;2023-11-19T10:00:07;10.60;99.90
28071;DHT22;15383;48.408;9.968;2023-11-19T10:02:33;10.50;99.90
28071;DHT22;15383;48.408;9.968;2023-11-19T10:05:04;10.50;99.90
28071;DHT22;15383;48.408;9.968;2023-11-19T10:07:31;10.60;99.90
28071;DHT22;15383;48.408;9.968;2023-11-19T10:09:59;10.50;99.90
28071;DHT22;15383;48.408;9.968;2023-11-19T10:12:26;10.50;99.90
28071;DHT22;15383;48.408;9.968;2023-11-19T10:14:53;10.50;99.90
28071;DHT22;15383;48.408;9.968;2023-11-19T10:17:20;10.50;99.90
28071;DHT22;15383;48.408;9.968;2023-11-19T10:19:45;10.60;99.90
28071;DHT22;15383;48.408;9.968;2023-11-19T10:22:11;10.60;99.90
28071;DHT22;15383;48.408;9.968;2023-11-19T10:24:36;10.60;99.90
28071;DHT22;15383;48.408;9.968;2023-11-19T10:27:07;10.60;99.90
28071;DHT22;15383;48.408;9.968;2023-11-19T10:29:39;10.60;99.90
28071;DHT22;15383;48.408;9.968;2023-11-19T10:32:04;10.60;99.90
28071;DHT22;15383;48.408;9.968;2023-11-19T10:34:30;10.60;99.90
28071;DHT22;15383;48.408;9.968;2023-11-19T10:36:56;10.70;99.90
28071;DHT22;15383;48.408;9.968;2023-11-19T10:39:21;10.70;99.90
28071;DHT22;15383;48.408;9.968;2023-11-19T10:41:49;10.70;99.90
28071;DHT22;15383;48.408;9.968;2023-11-19T10:44:33;10.70;99.90
28071;DHT22;15383;48.408;9.968;2023-11-19T10:47:01;10.80;99.90
28071;DHT22;15383;48.408;9.968;2023-11-19T10:49:26;10.70;99.90
28071;DHT22;15383;48.408;9.968;2023-11-19T10:51:53;10.70;99.90
28071;DHT22;15383;48.408;9.968;2023-11-19T10:54:19;10.70;99.90
28071;DHT22;15383;48.408;9.968;2023-11-19T10:56:49;10.70;99.90
28071;DHT22;15383;48.408;9.968;2023-11-19T10:59:20;10.80;99.90
28071;DHT22;15383;48.408;9.968;2023-11-19T11:01:48;10.80;99.90
28071;DHT22;15383;48.408;9.968;2023-11-19T11:04:22;11.20;99.90
28071;DHT22;15383;48.408;9.968;2023-11-19T11:06:48;13.90;99.90
28071;DHT22;15383;48.408;9.968;2023-11-19T11:09:13;15.00;99.90
28071;DHT22;15383;48.408;9.968;2023-11-19T11:11:40;15.20;99.90
28071;DHT22;15383;48.408;9.968;2023-11-19T11:14:07;15.20;99.90
28071;DHT22;15383;48.408;9.968;2023-11-19T11:16:36;14.90;99.90
28071;DHT22;15383;48.408;9.968;2023-11-19T11:19:03;15.00;99.90
28071;DHT22;15383;48.408;9.968;2023-11-19T11:21:29;15.00;99.90
28071;DHT22;15383;48.408;9.968;2023-11-19T11:24:01;15.10;99.90
28071;DHT22;15383;48.408;9.968;2023-11-19T11:34:29;15.30;99.90
28071;DHT22;15383;48.408;9.968;2023-11-19T11:39:35;15.40;99.90
28071;DHT22;15383;48.408;9.968;2023-11-19T11:45:06;15.50;99.90
28071;DHT22;15383;48.408;9.968;2023-11-19T11:50:11;15.40;99.90
28071;DHT22;15383;48.408;9.968;2023-11-19T11:57:59;15.50;99.90
28071;DHT22;15383;48.408;9.968;2023-11-19T12:00:40;15.50;99.90
28071;DHT22;15383;48.408;9.968;2023-11-19T12:03:07;15.50;99.90
28071;DHT22;15383;48.408;9.968;2023-11-19T12:05:35;15.70;99.90
28071;DHT22;15383;48.408;9.968;2023-11-19T12:08:04;15.60;99.90
28071;DHT22;15383;48.408;9.968;2023-11-19T12:10:37;15.70;99.90
28071;DHT22;15383;48.408;9.968;2023-11-19T12:13:05;15.70;99.90
28071;DHT22;15383;48.408;9.968;2023-11-19T12:15:32;15.60;99.90
28071;DHT22;15383;48.408;9.968;2023-11-19T12:17:58;15.60;99.90
28071;DHT22;15383;48.408;9.968;2023-11-19T12:20:25;15.50;99.90
28071;DHT22;15383;48.408;9.968;2023-11-19T12:22:52;15.40;99.90
28071;DHT22;15383;48.408;9.968;2023-11-19T12:25:19;15.60;99.90
28071;DHT22;15383;48.408;9.968;2023-11-19T12:27:50;15.70;99.90
28071;DHT22;15383;48.408;9.968;2023-11-19T12:30:25;15.90;99.90
28071;DHT22;15383;48.408;9.968;2023-11-19T12:32:51;15.90;99.90
28071;DHT22;15383;48.408;9.968;2023-11-19T12:35:19;16.00;99.90
28071;DHT22;15383;48.408;9.968;2023-11-19T12:37:49;15.90;99.90
28071;DHT22;15383;48.408;9.968;2023-11-19T12:40:16;15.80;99.90
28071;DHT22;15383;48.408;9.968;2023-11-19T12:42:43;15.70;99.90
28071;DHT22;15383;48.408;9.968;2023-11-19T12:45:09;15.70;99.90
28071;DHT22;15383;48.408;9.968;2023-11-19T12:47:39;15.70;99.90
28071;DHT22;15383;48.408;9.968;2023-11-19T12:50:06;15.70;99.90
28071;DHT22;15383;48.408;9.968;2023-11-19T12:52:32;15.70;99.90
28071;DHT22;15383;48.408;9.968;2023-11-19T12:54:58;15.60;99.90
28071;DHT22;15383;48.408;9.968;2023-11-19T12:57:40;15.60;99.90
28071;DHT22;15383;48.408;9.968;2023-11-19T13:00:06;15.60;99.90
28071;DHT22;15383;48.408;9.968;2023-11-19T13:02:49;15.40;99.90
28071;DHT22;15383;48.408;9.968;2023-11-19T13:05:26;15.50;99.90
28071;DHT22;15383;48.408;9.968;2023-11-19T13:08:04;15.60;99.90
28071;DHT22;15383;48.408;9.968;2023-11-19T13:10:49;15.60;99.90
28071;DHT22;15383;48.408;9.968;2023-11-19T13:13:21;15.50;99.90
28071;DHT22;15383;48.408;9.968;2023-11-19T13:15:47;15.50;99.90
28071;DHT22;15383;48.408;9.968;2023-11-19T13:18:13;15.50;99.90
28071;DHT22;15383;48.408;9.968;2023-11-19T13:20:39;15.50;99.90
28071;DHT22;15383;48.408;9.968;2023-11-19T13:23:06;15.50;99.90
28071;DHT22;15383;48.408;9.968;2023-11-19T13:25:35;15.50;99.90
28071;DHT22;15383;48.408;9.968;2023-11-19T13:28:01;15.50;99.90
28071;DHT22;15383;48.408;9.968;2023-11-19T13:30:27;15.50;99.90
28071;DHT22;15383;48.408;9.968;2023-11-19T13:32:52;15.60;99.90
28071;DHT22;15383;48.408;9.968;2023-11-19T13:35:20;15.60;99.90
28071;DHT22;15383;48.408;9.968;2023-11-19T13:37:47;15.60;99.90
28071;DHT22;15383;48.408;9.968;2023-11-19T13:40:13;15.60;99.90
28071;DHT22;15383;48.408;9.968;2023-11-19T13:42:42;14.50;99.90
28071;DHT22;15383;48.408;9.968;2023-11-19T13:45:12;13.50;99.90
28071;DHT22;15383;48.408;9.968;2023-11-19T13:47:39;12.90;99.90
28071;DHT22;15383;48.408;9.968;2023-11-19T13:50:10;12.60;99.90
28071;DHT22;15383;48.408;9.968;2023-11-19T13:52:41;12.40;99.90
28071;DHT22;15383;48.408;9.968;2023-11-19T13:55:08;12.20;99.90
28071;DHT22;15383;48.408;9.968;2023-11-19T13:57:35;12.20;99.90
28071;DHT22;15383;48.408;9.968;2023-11-19T14:00:02;12.10;99.90
28071;DHT22;15383;48.408;9.968;2023-11-19T14:02:31;12.00;99.90
28071;DHT22;15383;48.408;9.968;2023-11-19T14:04:57;12.00;99.90
28071;DHT22;15383;48.408;9.968;2023-11-19T14:07:22;12.00;99.90
28071;DHT22;15383;48.408;9.968;2023-11-19T14:09:48;12.00;99.90
28071;DHT22;15383;48.408;9.968;2023-11-19T14:12:13;15.10;99.90
28071;DHT22;15383;48.408;9.968;2023-11-19T14:14:39;16.90;99.90
28071;DHT22;15383;48.408;9.968;2023-11-19T14:17:05;16.90;99.90
28071;DHT22;15383;48.408;9.968;2023-11-19T14:19:30;16.20;99.90
28071;DHT22;15383;48.408;9.968;2023-11-19T14:21:56;15.80;99.90
28071;DHT22;15383;48.408;9.968;2023-11-19T14:24:21;17.00;99.90
28071;DHT22;15383;48.408;9.968;2023-11-19T14:26:47;16.40;99.90
28071;DHT22;15383;48.408;9.968;2023-11-19T14:29:14;16.10;99.90
28071;DHT22;15383;48.408;9.968;2023-11-19T14:31:39;15.80;99.90
28071;DHT22;15383;48.408;9.968;2023-11-19T14:34:05;15.90;99.90
28071;DHT22;15383;48.408;9.968;2023-11-19T14:36:30;15.90;99.90
28071;DHT22;15383;48.408;9.968;2023-11-19T14:38:56;15.70;99.90
28071;DHT22;15383;48.408;9.968;2023-11-19T14:41:24;16.20;99.90
28071;DHT22;15383;48.408;9.968;2023-11-19T14:43:49;16.30;99.90
28071;DHT22;15383;48.408;9.968;2023-11-19T14:46:15;16.10;99.90
28071;DHT22;15383;48.408;9.968;2023-11-19T14:48:41;16.10;99.90
28071;DHT22;15383;48.408;9.968;2023-11-19T14:51:06;16.10;99.90
28071;DHT22;15383;48.408;9.968;2023-11-19T14:53:32;16.00;99.90
28071;DHT22;15383;48.408;9.968;2023-11-19T14:55:58;16.00;99.90
28071;DHT22;15383;48.408;9.968;2023-11-19T14:58:23;16.20;99.90
28071;DHT22;15383;48.408;9.968;2023-11-19T15:00:51;16.40;99.90
28071;DHT22;15383;48.408;9.968;2023-11-19T15:03:17;16.40;99.90
28071;DHT22;15383;48.408;9.968;2023-11-19T15:05:45;16.40;99.90
28071;DHT22;15383;48.408;9.968;2023-11-19T15:08:11;15.00;99.90
28071;DHT22;15383;48.408;9.968;2023-11-19T15:10:36;13.80;99.90
28071;DHT22;15383;48.408;9.968;2023-11-19T15:13:03;13.10;99.90
28071;DHT22;15383;48.408;9.968;2023-11-19T15:15:29;12.70;99.90
28071;DHT22;15383;48.408;9.968;2023-11-19T15:17:55;12.40;99.90
28071;DHT22;15383;48.408;9.968;2023-11-19T15:20:20;12.20;99.90
28071;DHT22;15383;48.408;9.968;2023-11-19T15:22:46;12.20;99.90
28071;DHT22;15383;48.408;9.968;2023-11-19T15:25:12;12.10;99.90
28071;DHT22;15383;48.408;9.968;2023-11-19T15:27:38;12.00;99.90
28071;DHT22;15383;48.408;9.968;2023-11-19T15:30:05;12.00;99.90
28071;DHT22;15383;48.408;9.968;2023-11-19T15:32:30;11.90;99.90
28071;DHT22;15383;48.408;9.968;2023-11-19T15:34:58;11.90;99.90
28071;DHT22;15383;48.408;9.968;2023-11-19T15:37:24;11.90;99.90
28071;DHT22;15383;48.408;9.968;2023-11-19T15:39:49;11.80;99.90
28071;DHT22;15383;48.408;9.968;2023-11-19T15:42:17;11.80;99.90
28071;DHT22;15383;48.408;9.968;2023-11-19T15:44:42;11.80;99.90
28071;DHT22;15383;48.408;9.968;2023-11-19T15:47:09;11.80;99.90
28071;DHT22;15383;48.408;9.968;2023-11-19T15:49:34;11.80;99.90
28071;DHT22;15383;48.408;9.968;2023-11-19T15:52:01;11.80;99.90
28071;DHT22;15383;48.408;9.968;2023-11-19T15:54:27;11.70;99.90
28071;DHT22;15383;48.408;9.968;2023-11-19T15:56:52;11.70;99.90
28071;DHT22;15383;48.408;9.968;2023-11-19T15:59:18;11.70;99.90
28071;DHT22;15383;48.408;9.968;2023-11-19T16:01:43;11.70;99.90
28071;DHT22;15383;48.408;9.968;2023-11-19T16:04:09;11.70;99.90
28071;DHT22;15383;48.408;9.968;2023-11-19T16:06:34;11.70;99.90
28071;DHT22;15383;48.408;9.968;2023-11-19T16:09:01;11.70;99.90
28071;DHT22;15383;48.408;9.968;2023-11-19T16:11:27;11.60;99.90
28071;DHT22;15383;48.408;9.968;2023-11-19T16:13:53;11.60;99.90
28071;DHT22;15383;48.408;9.968;2023-11-19T16:16:18;11.60;99.90
28071;DHT22;15383;48.408;9.968;2023-11-19T16:18:44;11.60;99.90
28071;DHT22;15383;48.408;9.968;2023-11-19T16:21:10;11.60;99.90
28071;DHT22;15383;48.408;9.968;2023-11-19T16:23:35;11.60;99.90
28071;DHT22;15383;48.408;9.968;2023-11-19T16:26:01;11.50;99.90
28071;DHT22;15383;48.408;9.968;2023-11-19T16:28:27;11.50;99.90
28071;DHT22;15383;48.408;9.968;2023-11-19T16:30:52;11.50;99.90
28071;DHT22;15383;48.408;9.968;2023-11-19T16:33:18;11.50;99.90
28071;DHT22;15383;48.408;9.968;2023-11-19T16:35:43;11.50;99.90
28071;DHT22;15383;48.408;9.968;2023-11-19T16:38:09;11.50;99.90
28071;DHT22;15383;48.408;9.968;2023-11-19T16:40:34;11.50;99.90
28071;DHT22;15383;48.408;9.968;2023-11-19T16:43:07;11.50;99.90
28071;DHT22;15383;48.408;9.968;2023-11-19T16:45:32;11.50;99.90
28071;DHT22;15383;48.408;9.968;2023-11-19T16:47:58;11.50;99.90
28071;DHT22;15383;48.408;9.968;2023-11-19T16:50:26;11.50;99.90
28071;DHT22;15383;48.408;9.968;2023-11-19T16:52:52;11.50;99.90
28071;DHT22;15383;48.408;9.968;2023-11-19T16:55:18;11.50;99.90
28071;DHT22;15383;48.408;9.968;2023-11-19T16:57:44;11.50;99.90
28071;DHT22;15383;48.408;9.968;2023-11-19T17:00:10;11.50;99.90
28071;DHT22;15383;48.408;9.968;2023-11-19T17:02:37;11.50;99.90
28071;DHT22;15383;48.408;9.968;2023-11-19T17:05:03;11.50;99.90
28071;DHT22;15383;48.408;9.968;2023-11-19T17:07:29;11.40;99.90
28071;DHT22;15383;48.408;9.968;2023-11-19T17:09:55;11.40;99.90
28071;DHT22;15383;48.408;9.968;2023-11-19T17:12:21;11.40;99.90
28071;DHT22;15383;48.408;9.968;2023-11-19T17:14:46;11.40;99.90
28071;DHT22;15383;48.408;9.968;2023-11-19T17:17:12;11.40;99.90
28071;DHT22;15383;48.408;9.968;2023-11-19T17:19:37;11.40;99.90
28071;DHT22;15383;48.408;9.968;2023-11-19T17:22:04;11.40;99.90
28071;DHT22;15383;48.408;9.968;2023-11-19T17:24:31;11.40;99.90
28071;DHT22;15383;48.408;9.968;2023-11-19T17:26:56;11.40;99.90
28071;DHT22;15383;48.408;9.968;2023-11-19T17:29:22;11.40;99.90
28071;DHT22;15383;48.408;9.968;2023-11-19T17:31:47;11.40;99.90
28071;DHT22;15383;48.408;9.968;2023-11-19T17:34:13;11.40;99.90
28071;DHT22;15383;48.408;9.968;2023-11-19T17:36:38;11.40;99.90
28071;DHT22;15383;48.408;9.968;2023-11-19T17:39:04;11.40;99.90
28071;DHT22;15383;48.408;9.968;2023-11-19T17:41:30;11.40;99.90
28071;DHT22;15383;48.408;9.968;2023-11-19T17:43:56;11.40;99.90
28071;DHT22;15383;48.408;9.968;2023-11-19T17:46:23;11.40;99.90
28071;DHT22;15383;48.408;9.968;2023-11-19T17:48:48;11.40;99.90
28071;DHT22;15383;48.408;9.968;2023-11-19T17:51:15;11.40;99.90
28071;DHT22;15383;48.408;9.968;2023-11-19T17:53:42;11.40;99.90
28071;DHT22;15383;48.408;9.968;2023-11-19T17:56:08;11.40;99.90
28071;DHT22;15383;48.408;9.968;2023-11-19T17:58:34;11.30;99.90
28071;DHT22;15383;48.408;9.968;2023-11-19T18:01:00;11.30;99.90
28071;DHT22;15383;48.408;9.968;2023-11-19T18:03:26;11.30;99.90
28071;DHT22;15383;48.408;9.968;2023-11-19T18:05:51;11.40;99.90
28071;DHT22;15383;48.408;9.968;2023-11-19T18:08:17;11.30;99.90
28071;DHT22;15383;48.408;9.968;2023-11-19T18:10:48;11.30;99.90
28071;DHT22;15383;48.408;9.968;2023-11-19T18:13:14;11.30;99.90
28071;DHT22;15383;48.408;9.968;2023-11-19T18:15:40;11.30;99.90
28071;DHT22;15383;48.408;9.968;2023-11-19T18:18:05;11.30;99.90
28071;DHT22;15383;48.408;9.968;2023-11-19T18:20:31;11.30;99.90
28071;DHT22;15383;48.408;9.968;2023-11-19T18:22:56;11.30;99.90
28071;DHT22;15383;48.408;9.968;2023-11-19T18:25:22;11.30;99.90
28071;DHT22;15383;48.408;9.968;2023-11-19T18:27:48;11.30;99.90
28071;DHT22;15383;48.408;9.968;2023-11-19T18:30:14;11.30;99.90
28071;DHT22;15383;48.408;9.968;2023-11-19T18:32:40;11.30;99.90
28071;DHT22;15383;48.408;9.968;2023-11-19T18:35:10;11.30;99.90
28071;DHT22;15383;48.408;9.968;2023-11-19T18:37:41;11.30;99.90
28071;DHT22;15383;48.408;9.968;2023-11-19T18:40:08;11.30;99.90
28071;DHT22;15383;48.408;9.968;2023-11-19T18:42:35;11.30;99.90
28071;DHT22;15383;48.408;9.968;2023-11-19T18:45:02;11.30;99.90
28071;DHT22;15383;48.408;9.968;2023-11-19T18:47:29;11.30;99.90
28071;DHT22;15383;48.408;9.968;2023-11-19T18:49:55;11.30;99.90
28071;DHT22;15383;48.408;9.968;2023-11-19T18:52:20;11.30;99.90
28071;DHT22;15383;48.408;9.968;2023-11-19T18:54:46;11.30;99.90
28071;DHT22;15383;48.408;9.968;2023-11-19T18:57:12;11.30;99.90
28071;DHT22;15383;48.408;9.968;2023-11-19T18:59:37;11.30;99.90
28071;DHT22;15383;48.408;9.968;2023-11-19T19:02:03;11.20;99.90
28071;DHT22;15383;48.408;9.968;2023-11-19T19:04:29;11.30;99.90
28071;DHT22;15383;48.408;9.968;2023-11-19T19:06:55;11.30;99.90
28071;DHT22;15383;48.408;9.968;2023-11-19T19:09:20;11.30;99.90
28071;DHT22;15383;48.408;9.968;2023-11-19T19:11:47;11.30;99.90
28071;DHT22;15383;48.408;9.968;2023-11-19T19:14:16;11.30;99.90
28071;DHT22;15383;48.408;9.968;2023-11-19T19:16:42;11.30;99.90
28071;DHT22;15383;48.408;9.968;2023-11-19T19:19:07;11.30;99.90
28071;DHT22;15383;48.408;9.968;2023-11-19T19:21:34;11.30;99.90
28071;DHT22;15383;48.408;9.968;2023-11-19T19:23:59;11.30;99.90
28071;DHT22;15383;48.408;9.968;2023-11-19T19:26:31;11.30;99.90
28071;DHT22;15383;48.408;9.968;2023-11-19T19:28:57;11.30;99.90
28071;DHT22;15383;48.408;9.968;2023-11-19T19:31:23;11.30;99.90
28071;DHT22;15383;48.408;9.968;2023-11-19T19:33:50;11.30;99.90
28071;DHT22;15383;48.408;9.968;2023-11-19T19:36:23;11.30;99.90
28071;DHT22;15383;48.408;9.968;2023-11-19T19:38:49;11.30;99.90
28071;DHT22;15383;48.408;9.968;2023-11-19T19:41:14;11.30;99.90
28071;DHT22;15383;48.408;9.968;2023-11-19T19:43:40;11.30;99.90
28071;DHT22;15383;48.408;9.968;2023-11-19T19:46:06;11.30;99.90
28071;DHT22;15383;48.408;9.968;2023-11-19T19:48:34;11.20;99.90